sensor_id;sensor_type;location;lat;lon;timestamp;pressure;altitude;pressure_sealevel;temperature;humidity
68634;BME280;55625;47.072;22.192;2023-03-22T00:02:08;99589.63;;;8.17;98.30
68634;BME280;55625;47.072;22.192;2023-03-22T00:04:34;99588.03;;;8.16;98.11
68634;BME280;55625;47.072;22.192;2023-03-22T00:07:00;99596.97;;;8.15;98.79
68634;BME280;55625;47.072;22.192;2023-03-22T00:09:26;99589.28;;;8.15;99.00
68634;BME280;55625;47.072;22.192;2023-03-22T00:11:52;99588.03;;;8.16;98.74
68634;BME280;55625;47.072;22.192;2023-03-22T00:14:18;99588.03;;;8.16;98.80
68634;BME280;55625;47.072;22.192;2023-03-22T00:16:43;99588.03;;;8.16;98.14
68634;BME280;55625;47.072;22.192;2023-03-22T00:19:11;99580.00;;;8.15;98.52
68634;BME280;55625;47.072;22.192;2023-03-22T00:21:37;99584.06;;;8.14;98.03
68634;BME280;55625;47.072;22.192;2023-03-22T00:24:03;99581.31;;;8.10;97.97
68634;BME280;55625;47.072;22.192;2023-03-22T00:26:28;99576.91;;;8.09;98.34
68634;BME280;55625;47.072;22.192;2023-03-22T00:28:54;99579.91;;;8.02;99.04
68634;BME280;55625;47.072;22.192;2023-03-22T00:31:20;99590.06;;;7.99;99.18
68634;BME280;55625;47.072;22.192;2023-03-22T00:33:46;99585.31;;;7.96;99.59
68634;BME280;55625;47.072;22.192;2023-03-22T00:36:12;99592.09;;;7.99;98.40
68634;BME280;55625;47.072;22.192;2023-03-22T00:38:38;99590.41;;;8.01;97.91
68634;BME280;55625;47.072;22.192;2023-03-22T00:41:17;99582.75;;;8.02;97.83
68634;BME280;55625;47.072;22.192;2023-03-22T00:43:44;99587.59;;;8.01;97.59
68634;BME280;55625;47.072;22.192;2023-03-22T00:46:14;99594.03;;;8.02;97.99
68634;BME280;55625;47.072;22.192;2023-03-22T00:48:40;99596.88;;;8.02;97.84
68634;BME280;55625;47.072;22.192;2023-03-22T00:51:07;99590.88;;;8.00;97.42
68634;BME280;55625;47.072;22.192;2023-03-22T00:53:33;99587.25;;;7.99;96.49
68634;BME280;55625;47.072;22.192;2023-03-22T00:56:03;99591.34;;;7.95;97.25
68634;BME280;55625;47.072;22.192;2023-03-22T00:58:29;99579.34;;;7.91;96.55
68634;BME280;55625;47.072;22.192;2023-03-22T01:00:55;99589.16;;;7.86;97.23
68634;BME280;55625;47.072;22.192;2023-03-22T01:03:21;99576.25;;;7.85;97.23
68634;BME280;55625;47.072;22.192;2023-03-22T01:05:48;99579.09;;;7.85;97.26
68634;BME280;55625;47.072;22.192;2023-03-22T01:08:14;99579.00;;;7.89;96.75
68634;BME280;55625;47.072;22.192;2023-03-22T01:10:42;99582.63;;;7.89;96.99
68634;BME280;55625;47.072;22.192;2023-03-22T01:13:09;99570.97;;;7.87;96.16
68634;BME280;55625;47.072;22.192;2023-03-22T01:15:36;99572.63;;;7.85;96.61
68634;BME280;55625;47.072;22.192;2023-03-22T01:18:02;99564.59;;;7.83;97.71
68634;BME280;55625;47.072;22.192;2023-03-22T01:20:28;99555.59;;;7.88;97.85
68634;BME280;55625;47.072;22.192;2023-03-22T01:22:54;99562.75;;;7.93;97.27
68634;BME280;55625;47.072;22.192;2023-03-22T01:25:20;99556.59;;;7.98;95.90
68634;BME280;55625;47.072;22.192;2023-03-22T01:27:46;99555.38;;;7.99;95.70
68634;BME280;55625;47.072;22.192;2023-03-22T01:30:12;99553.34;;;7.99;95.79
68634;BME280;55625;47.072;22.192;2023-03-22T01:32:39;99548.47;;;8.00;94.33
68634;BME280;55625;47.072;22.192;2023-03-22T01:35:05;99546.88;;;7.99;94.48
68634;BME280;55625;47.072;22.192;2023-03-22T01:37:32;99548.13;;;7.98;94.75
68634;BME280;55625;47.072;22.192;2023-03-22T01:39:58;99552.25;;;7.93;95.03
68634;BME280;55625;47.072;22.192;2023-03-22T01:42:26;99545.09;;;7.89;94.99
68634;BME280;55625;47.072;22.192;2023-03-22T01:47:56;99554.56;;;7.62;95.58
68634;BME280;55625;47.072;22.192;2023-03-22T01:50:24;99549.97;;;7.52;95.69
68634;BME280;55625;47.072;22.192;2023-03-22T01:52:51;99549.78;;;7.43;95.64
68634;BME280;55625;47.072;22.192;2023-03-22T01:55:18;99552.75;;;7.36;94.88
68634;BME280;55625;47.072;22.192;2023-03-22T01:57:49;99552.97;;;7.25;96.01
68634;BME280;55625;47.072;22.192;2023-03-22T02:00:16;99558.41;;;7.16;97.09
68634;BME280;55625;47.072;22.192;2023-03-22T02:02:50;99553.72;;;7.09;97.09
68634;BME280;55625;47.072;22.192;2023-03-22T02:05:17;99547.84;;;7.00;97.56
68634;BME280;55625;47.072;22.192;2023-03-22T02:07:44;99560.41;;;6.96;97.59
68634;BME280;55625;47.072;22.192;2023-03-22T02:10:21;99557.81;;;6.85;98.82
68634;BME280;55625;47.072;22.192;2023-03-22T02:13:16;99562.75;;;6.81;98.53
68634;BME280;55625;47.072;22.192;2023-03-22T02:18:38;99557.59;;;6.76;99.09
68634;BME280;55625;47.072;22.192;2023-03-22T02:21:27;99556.41;;;6.73;99.47
68634;BME280;55625;47.072;22.192;2023-03-22T02:24:20;99551.63;;;6.70;98.83
68634;BME280;55625;47.072;22.192;2023-03-22T02:33:28;99556.47;;;6.50;100.00
68634;BME280;55625;47.072;22.192;2023-03-22T02:42:58;99557.38;;;6.43;100.00
68634;BME280;55625;47.072;22.192;2023-03-22T02:45:38;99555.38;;;6.44;100.00
68634;BME280;55625;47.072;22.192;2023-03-22T02:48:40;99557.31;;;6.47;100.00
68634;BME280;55625;47.072;22.192;2023-03-22T02:52:00;99553.72;;;6.46;100.00
68634;BME280;55625;47.072;22.192;2023-03-22T02:55:16;99569.47;;;6.44;100.00
68634;BME280;55625;47.072;22.192;2023-03-22T02:57:49;99557.00;;;6.41;100.00
68634;BME280;55625;47.072;22.192;2023-03-22T03:00:18;99564.28;;;6.39;100.00
68634;BME280;55625;47.072;22.192;2023-03-22T03:02:51;99570.78;;;6.36;100.00
68634;BME280;55625;47.072;22.192;2023-03-22T03:05:19;99572.00;;;6.35;100.00
68634;BME280;55625;47.072;22.192;2023-03-22T03:07:51;99568.84;;;6.33;100.00
68634;BME280;55625;47.072;22.192;2023-03-22T03:10:19;99569.69;;;6.30;100.00
68634;BME280;55625;47.072;22.192;2023-03-22T03:12:46;99562.09;;;6.27;100.00
68634;BME280;55625;47.072;22.192;2023-03-22T03:15:18;99568.16;;;6.25;100.00
68634;BME280;55625;47.072;22.192;2023-03-22T03:20:52;99567.50;;;6.17;99.74
68634;BME280;55625;47.072;22.192;2023-03-22T03:23:43;99568.81;;;6.09;99.35
68634;BME280;55625;47.072;22.192;2023-03-22T03:29:58;99567.81;;;5.96;100.00
68634;BME280;55625;47.072;22.192;2023-03-22T03:35:20;99571.56;;;5.89;100.00
68634;BME280;55625;47.072;22.192;2023-03-22T03:40:32;99574.81;;;5.84;100.00
68634;BME280;55625;47.072;22.192;2023-03-22T03:43:02;99572.47;;;5.79;100.00
68634;BME280;55625;47.072;22.192;2023-03-22T03:45:30;99573.31;;;5.76;100.00
68634;BME280;55625;47.072;22.192;2023-03-22T03:48:05;99575.38;;;5.72;100.00
68634;BME280;55625;47.072;22.192;2023-03-22T03:50:33;99570.28;;;5.64;100.00
68634;BME280;55625;47.072;22.192;2023-03-22T03:52:59;99579.31;;;5.51;100.00
68634;BME280;55625;47.072;22.192;2023-03-22T03:55:26;99575.78;;;5.44;100.00
68634;BME280;55625;47.072;22.192;2023-03-22T03:57:53;99585.13;;;5.37;100.00
68634;BME280;55625;47.072;22.192;2023-03-22T04:00:19;99589.22;;;5.33;100.00
68634;BME280;55625;47.072;22.192;2023-03-22T04:02:45;99586.06;;;5.27;100.00
68634;BME280;55625;47.072;22.192;2023-03-22T04:05:12;99583.75;;;5.18;100.00
68634;BME280;55625;47.072;22.192;2023-03-22T04:07:38;99580.59;;;5.13;100.00
68634;BME280;55625;47.072;22.192;2023-03-22T04:10:05;99579.00;;;5.12;100.00
68634;BME280;55625;47.072;22.192;2023-03-22T04:12:32;99589.84;;;5.13;100.00
68634;BME280;55625;47.072;22.192;2023-03-22T04:14:58;99588.25;;;5.12;100.00
68634;BME280;55625;47.072;22.192;2023-03-22T04:17:24;99587.91;;;5.07;100.00
68634;BME280;55625;47.072;22.192;2023-03-22T04:19:54;99596.00;;;5.01;100.00
68634;BME280;55625;47.072;22.192;2023-03-22T04:22:25;99588.09;;;4.92;100.00
68634;BME280;55625;47.072;22.192;2023-03-22T04:24:51;99595.34;;;4.86;100.00
68634;BME280;55625;47.072;22.192;2023-03-22T04:27:18;99595.44;;;4.79;100.00
68634;BME280;55625;47.072;22.192;2023-03-22T04:29:44;99595.47;;;4.76;100.00
68634;BME280;55625;47.072;22.192;2023-03-22T04:32:16;99593.09;;;4.74;100.00
68634;BME280;55625;47.072;22.192;2023-03-22T04:34:44;99597.16;;;4.70;100.00
68634;BME280;55625;47.072;22.192;2023-03-22T04:37:12;99597.19;;;4.66;100.00
68634;BME280;55625;47.072;22.192;2023-03-22T04:39:38;99604.50;;;4.60;100.00
68634;BME280;55625;47.072;22.192;2023-03-22T04:42:04;99602.53;;;4.53;100.00
68634;BME280;55625;47.072;22.192;2023-03-22T04:44:30;99608.56;;;4.52;100.00
68634;BME280;55625;47.072;22.192;2023-03-22T04:46:56;99608.19;;;4.50;100.00
68634;BME280;55625;47.072;22.192;2023-03-22T04:49:22;99605.38;;;4.50;100.00
68634;BME280;55625;47.072;22.192;2023-03-22T04:51:48;99609.38;;;4.49;100.00
68634;BME280;55625;47.072;22.192;2023-03-22T04:54:14;99611.34;;;4.55;100.00
68634;BME280;55625;47.072;22.192;2023-03-22T04:56:40;99618.94;;;4.58;100.00
68634;BME280;55625;47.072;22.192;2023-03-22T04:59:06;99622.94;;;4.61;100.00
68634;BME280;55625;47.072;22.192;2023-03-22T05:01:31;99620.50;;;4.63;100.00
68634;BME280;55625;47.072;22.192;2023-03-22T05:03:59;99617.28;;;4.64;100.00
68634;BME280;55625;47.072;22.192;2023-03-22T05:06:25;99623.31;;;4.63;100.00
68634;BME280;55625;47.072;22.192;2023-03-22T05:08:51;99628.06;;;4.70;100.00
68634;BME280;55625;47.072;22.192;2023-03-22T05:11:17;99628.31;;;4.86;100.00
68634;BME280;55625;47.072;22.192;2023-03-22T05:13:48;99636.16;;;5.05;100.00
68634;BME280;55625;47.072;22.192;2023-03-22T05:16:14;99629.91;;;5.24;100.00
68634;BME280;55625;47.072;22.192;2023-03-22T05:18:40;99630.06;;;5.44;100.00
68634;BME280;55625;47.072;22.192;2023-03-22T05:21:17;99627.38;;;5.64;100.00
68634;BME280;55625;47.072;22.192;2023-03-22T05:23:47;99624.75;;;5.80;100.00
68634;BME280;55625;47.072;22.192;2023-03-22T05:26:15;99628.19;;;5.95;100.00
68634;BME280;55625;47.072;22.192;2023-03-22T05:28:42;99630.69;;;6.16;100.00
68634;BME280;55625;47.072;22.192;2023-03-22T05:31:08;99632.00;;;6.35;98.92
68634;BME280;55625;47.072;22.192;2023-03-22T05:33:36;99637.28;;;6.57;97.25
68634;BME280;55625;47.072;22.192;2023-03-22T05:36:02;99637.91;;;6.68;96.32
68634;BME280;55625;47.072;22.192;2023-03-22T05:38:28;99641.63;;;6.84;95.21
68634;BME280;55625;47.072;22.192;2023-03-22T05:40:54;99643.28;;;7.05;94.24
68634;BME280;55625;47.072;22.192;2023-03-22T05:43:20;99638.59;;;7.19;93.98
68634;BME280;55625;47.072;22.192;2023-03-22T05:45:46;99646.63;;;7.40;93.22
68634;BME280;55625;47.072;22.192;2023-03-22T05:48:12;99653.13;;;7.57;93.74
68634;BME280;55625;47.072;22.192;2023-03-22T05:50:38;99647.03;;;7.78;93.15
68634;BME280;55625;47.072;22.192;2023-03-22T05:53:04;99656.44;;;7.91;92.72
68634;BME280;55625;47.072;22.192;2023-03-22T05:55:30;99668.94;;;8.10;92.22
68634;BME280;55625;47.072;22.192;2023-03-22T05:57:59;99655.56;;;8.30;91.46
68634;BME280;55625;47.072;22.192;2023-03-22T06:00:27;99658.94;;;8.42;91.23
68634;BME280;55625;47.072;22.192;2023-03-22T06:02:57;99661.41;;;8.56;89.51
68634;BME280;55625;47.072;22.192;2023-03-22T06:05:31;99654.81;;;8.62;89.15
68634;BME280;55625;47.072;22.192;2023-03-22T06:07:58;99667.44;;;8.74;88.98
68634;BME280;55625;47.072;22.192;2023-03-22T06:10:24;99669.47;;;8.90;87.83
68634;BME280;55625;47.072;22.192;2023-03-22T06:12:52;99661.50;;;9.01;87.45
68634;BME280;55625;47.072;22.192;2023-03-22T06:15:18;99670.50;;;9.12;86.45
68634;BME280;55625;47.072;22.192;2023-03-22T06:17:44;99668.53;;;9.25;86.14
68634;BME280;55625;47.072;22.192;2023-03-22T06:20:12;99671.06;;;9.36;85.11
68634;BME280;55625;47.072;22.192;2023-03-22T06:22:39;99669.09;;;9.49;84.41
68634;BME280;55625;47.072;22.192;2023-03-22T06:25:09;99672.19;;;9.68;83.87
68634;BME280;55625;47.072;22.192;2023-03-22T06:27:35;99666.25;;;9.91;83.43
68634;BME280;55625;47.072;22.192;2023-03-22T06:30:02;99674.56;;;10.11;81.83
68634;BME280;55625;47.072;22.192;2023-03-22T06:32:28;99670.75;;;10.30;81.71
68634;BME280;55625;47.072;22.192;2023-03-22T06:34:54;99675.63;;;10.55;80.85
68634;BME280;55625;47.072;22.192;2023-03-22T06:37:21;99668.69;;;10.69;79.34
68634;BME280;55625;47.072;22.192;2023-03-22T06:39:47;99672.88;;;10.89;79.24
68634;BME280;55625;47.072;22.192;2023-03-22T06:42:14;99668.63;;;11.07;77.99
68634;BME280;55625;47.072;22.192;2023-03-22T06:44:40;99668.31;;;11.27;76.98
68634;BME280;55625;47.072;22.192;2023-03-22T06:47:10;99667.56;;;11.48;76.46
68634;BME280;55625;47.072;22.192;2023-03-22T06:49:36;99675.56;;;11.62;76.43
68634;BME280;55625;47.072;22.192;2023-03-22T06:52:02;99671.41;;;11.76;75.86
68634;BME280;55625;47.072;22.192;2023-03-22T06:54:28;99677.19;;;11.85;74.56
68634;BME280;55625;47.072;22.192;2023-03-22T06:56:54;99683.00;;;12.03;74.30
68634;BME280;55625;47.072;22.192;2023-03-22T06:59:20;99677.69;;;12.15;74.29
68634;BME280;55625;47.072;22.192;2023-03-22T07:01:46;99675.91;;;12.08;73.01
68634;BME280;55625;47.072;22.192;2023-03-22T07:04:13;99681.72;;;12.26;74.20
68634;BME280;55625;47.072;22.192;2023-03-22T07:06:39;99680.72;;;12.51;72.11
68634;BME280;55625;47.072;22.192;2023-03-22T07:09:05;99675.09;;;12.69;73.02
68634;BME280;55625;47.072;22.192;2023-03-22T07:11:31;99677.56;;;12.98;70.66
68634;BME280;55625;47.072;22.192;2023-03-22T07:13:57;99687.06;;;13.04;68.88
68634;BME280;55625;47.072;22.192;2023-03-22T07:16:23;99679.22;;;13.27;70.48
68634;BME280;55625;47.072;22.192;2023-03-22T07:18:49;99682.41;;;13.56;69.53
68634;BME280;55625;47.072;22.192;2023-03-22T07:21:15;99683.66;;;13.74;67.95
68634;BME280;55625;47.072;22.192;2023-03-22T07:23:40;99687.75;;;13.91;67.36
68634;BME280;55625;47.072;22.192;2023-03-22T07:26:06;99690.59;;;14.00;65.52
68634;BME280;55625;47.072;22.192;2023-03-22T07:28:32;99693.59;;;14.15;66.02
68634;BME280;55625;47.072;22.192;2023-03-22T07:31:10;99696.09;;;14.22;63.75
68634;BME280;55625;47.072;22.192;2023-03-22T07:33:40;99694.97;;;14.28;63.37
68634;BME280;55625;47.072;22.192;2023-03-22T07:36:08;99698.00;;;14.43;62.73
68634;BME280;55625;47.072;22.192;2023-03-22T07:38:34;99703.44;;;14.65;63.89
68634;BME280;55625;47.072;22.192;2023-03-22T07:41:00;99696.31;;;14.94;63.32
68634;BME280;55625;47.072;22.192;2023-03-22T07:43:26;99694.16;;;15.12;60.45
68634;BME280;55625;47.072;22.192;2023-03-22T07:45:52;99692.03;;;15.22;60.53
68634;BME280;55625;47.072;22.192;2023-03-22T07:48:19;99692.41;;;15.39;61.42
68634;BME280;55625;47.072;22.192;2023-03-22T07:50:46;99691.94;;;15.55;60.96
68634;BME280;55625;47.072;22.192;2023-03-22T07:53:13;99690.84;;;15.76;60.63
68634;BME280;55625;47.072;22.192;2023-03-22T07:55:39;99684.44;;;15.81;58.97
68634;BME280;55625;47.072;22.192;2023-03-22T07:58:07;99692.28;;;15.96;60.09
68634;BME280;55625;47.072;22.192;2023-03-22T08:00:33;99692.19;;;16.20;60.98
68634;BME280;55625;47.072;22.192;2023-03-22T08:03:00;99686.63;;;16.45;60.10
68634;BME280;55625;47.072;22.192;2023-03-22T08:05:26;99688.91;;;16.71;58.32
68634;BME280;55625;47.072;22.192;2023-03-22T08:07:52;99688.56;;;16.98;58.36
68634;BME280;55625;47.072;22.192;2023-03-22T08:10:19;99693.13;;;17.25;58.35
68634;BME280;55625;47.072;22.192;2023-03-22T08:12:45;99683.22;;;17.47;55.60
68634;BME280;55625;47.072;22.192;2023-03-22T08:15:11;99690.88;;;17.35;57.75
68634;BME280;55625;47.072;22.192;2023-03-22T08:17:37;99686.94;;;17.53;58.03
68634;BME280;55625;47.072;22.192;2023-03-22T08:20:04;99689.16;;;17.63;54.94
68634;BME280;55625;47.072;22.192;2023-03-22T08:22:36;99693.25;;;17.36;55.26
68634;BME280;55625;47.072;22.192;2023-03-22T08:25:05;99694.09;;;17.43;54.62
68634;BME280;55625;47.072;22.192;2023-03-22T08:27:31;99696.63;;;17.15;56.11
68634;BME280;55625;47.072;22.192;2023-03-22T08:29:57;99706.91;;;17.06;53.73
68634;BME280;55625;47.072;22.192;2023-03-22T08:32:24;99703.72;;;17.19;53.75
68634;BME280;55625;47.072;22.192;2023-03-22T08:34:50;99698.78;;;17.20;54.18
68634;BME280;55625;47.072;22.192;2023-03-22T08:37:17;99701.06;;;17.36;52.53
68634;BME280;55625;47.072;22.192;2023-03-22T08:39:45;99707.19;;;16.59;53.79
68634;BME280;55625;47.072;22.192;2023-03-22T08:42:11;99701.66;;;16.85;53.22
68634;BME280;55625;47.072;22.192;2023-03-22T08:44:37;99694.78;;;16.97;53.91
68634;BME280;55625;47.072;22.192;2023-03-22T08:47:02;99700.03;;;16.98;53.35
68634;BME280;55625;47.072;22.192;2023-03-22T08:49:28;99699.00;;;17.36;53.09
68634;BME280;55625;47.072;22.192;2023-03-22T08:51:56;99696.78;;;17.87;54.24
68634;BME280;55625;47.072;22.192;2023-03-22T08:54:25;99692.44;;;17.97;50.65
68634;BME280;55625;47.072;22.192;2023-03-22T08:56:52;99699.16;;;17.68;49.80
68634;BME280;55625;47.072;22.192;2023-03-22T08:59:18;99697.72;;;18.04;51.24
68634;BME280;55625;47.072;22.192;2023-03-22T09:01:44;99697.63;;;17.93;52.59
68634;BME280;55625;47.072;22.192;2023-03-22T09:04:10;99704.94;;;18.46;51.62
68634;BME280;55625;47.072;22.192;2023-03-22T09:06:36;99700.53;;;18.76;52.89
68634;BME280;55625;47.072;22.192;2023-03-22T09:09:02;99704.47;;;18.79;50.99
68634;BME280;55625;47.072;22.192;2023-03-22T09:11:28;99702.50;;;18.96;49.46
68634;BME280;55625;47.072;22.192;2023-03-22T09:13:54;99694.03;;;19.24;47.38
68634;BME280;55625;47.072;22.192;2023-03-22T09:16:20;99693.34;;;19.35;47.21
68634;BME280;55625;47.072;22.192;2023-03-22T09:18:46;99692.06;;;19.41;46.46
68634;BME280;55625;47.072;22.192;2023-03-22T09:21:12;99695.09;;;18.84;49.81
68634;BME280;55625;47.072;22.192;2023-03-22T09:23:38;99699.03;;;18.86;48.52
68634;BME280;55625;47.072;22.192;2023-03-22T09:26:07;99694.25;;;19.15;47.15
68634;BME280;55625;47.072;22.192;2023-03-22T09:28:35;99690.47;;;19.40;48.71
68634;BME280;55625;47.072;22.192;2023-03-22T09:31:07;99697.59;;;19.50;45.68
68634;BME280;55625;47.072;22.192;2023-03-22T09:33:35;99695.03;;;19.58;42.62
68634;BME280;55625;47.072;22.192;2023-03-22T09:36:01;99686.59;;;19.49;41.47
68634;BME280;55625;47.072;22.192;2023-03-22T09:38:27;99700.97;;;19.43;40.13
68634;BME280;55625;47.072;22.192;2023-03-22T09:41:06;99695.50;;;19.03;41.27
68634;BME280;55625;47.072;22.192;2023-03-22T09:43:41;99689.84;;;19.68;41.01
68634;BME280;55625;47.072;22.192;2023-03-22T09:46:14;99681.59;;;20.20;41.39
68634;BME280;55625;47.072;22.192;2023-03-22T09:48:45;99685.25;;;20.15;40.67
68634;BME280;55625;47.072;22.192;2023-03-22T09:51:39;99683.97;;;20.38;40.45
68634;BME280;55625;47.072;22.192;2023-03-22T09:54:37;99683.50;;;20.62;40.31
68634;BME280;55625;47.072;22.192;2023-03-22T10:00:44;99677.16;;;20.36;39.21
68634;BME280;55625;47.072;22.192;2023-03-22T10:06:01;99685.00;;;20.13;38.81
68634;BME280;55625;47.072;22.192;2023-03-22T10:08:41;99670.88;;;20.37;38.01
68634;BME280;55625;47.072;22.192;2023-03-22T10:14:39;99675.53;;;19.90;37.14
68634;BME280;55625;47.072;22.192;2023-03-22T10:17:13;99671.88;;;19.95;37.25
68634;BME280;55625;47.072;22.192;2023-03-22T10:19:54;99672.88;;;19.81;40.92
68634;BME280;55625;47.072;22.192;2023-03-22T10:22:28;99667.09;;;19.81;38.03
68634;BME280;55625;47.072;22.192;2023-03-22T10:24:55;99671.13;;;19.46;38.90
68634;BME280;55625;47.072;22.192;2023-03-22T10:27:22;99670.03;;;19.98;40.55
68634;BME280;55625;47.072;22.192;2023-03-22T10:30:15;99671.94;;;20.23;40.08
68634;BME280;55625;47.072;22.192;2023-03-22T10:33:03;99674.06;;;20.45;38.27
68634;BME280;55625;47.072;22.192;2023-03-22T10:35:30;99664.34;;;20.42;37.78
68634;BME280;55625;47.072;22.192;2023-03-22T10:38:01;99662.53;;;20.56;39.90
68634;BME280;55625;47.072;22.192;2023-03-22T10:40:32;99661.72;;;20.39;38.41
68634;BME280;55625;47.072;22.192;2023-03-22T10:43:29;99670.94;;;20.54;39.95
68634;BME280;55625;47.072;22.192;2023-03-22T10:45:57;99658.84;;;20.84;39.61
68634;BME280;55625;47.072;22.192;2023-03-22T10:48:33;99658.50;;;21.21;40.06
68634;BME280;55625;47.072;22.192;2023-03-22T10:51:01;99666.09;;;21.29;37.89
68634;BME280;55625;47.072;22.192;2023-03-22T10:53:42;99661.66;;;21.28;37.74
68634;BME280;55625;47.072;22.192;2023-03-22T10:56:18;99655.03;;;21.45;37.32
68634;BME280;55625;47.072;22.192;2023-03-22T10:58:47;99649.66;;;20.85;36.40
68634;BME280;55625;47.072;22.192;2023-03-22T11:01:24;99644.63;;;21.08;37.94
68634;BME280;55625;47.072;22.192;2023-03-22T11:03:56;99641.03;;;20.57;35.63
68634;BME280;55625;47.072;22.192;2023-03-22T11:06:33;99644.44;;;20.84;36.90
68634;BME280;55625;47.072;22.192;2023-03-22T11:09:22;99633.09;;;21.02;34.92
68634;BME280;55625;47.072;22.192;2023-03-22T11:11:58;99636.84;;;20.47;36.47
68634;BME280;55625;47.072;22.192;2023-03-22T11:14:39;99634.38;;;19.78;37.20
68634;BME280;55625;47.072;22.192;2023-03-22T11:17:11;99639.16;;;20.09;38.96
68634;BME280;55625;47.072;22.192;2023-03-22T11:20:03;99629.31;;;19.57;37.85
68634;BME280;55625;47.072;22.192;2023-03-22T11:22:36;99633.19;;;19.48;39.93
68634;BME280;55625;47.072;22.192;2023-03-22T11:25:27;99625.00;;;20.00;37.72
68634;BME280;55625;47.072;22.192;2023-03-22T11:28:06;99620.28;;;20.14;36.17
68634;BME280;55625;47.072;22.192;2023-03-22T11:30:35;99622.31;;;19.74;37.53
68634;BME280;55625;47.072;22.192;2023-03-22T11:33:19;99620.88;;;19.42;38.23
68634;BME280;55625;47.072;22.192;2023-03-22T11:35:53;99620.00;;;19.24;39.77
68634;BME280;55625;47.072;22.192;2023-03-22T11:38:24;99622.72;;;18.91;39.14
68634;BME280;55625;47.072;22.192;2023-03-22T11:41:22;99623.50;;;19.45;36.78
68634;BME280;55625;47.072;22.192;2023-03-22T11:43:59;99616.31;;;19.78;37.54
68634;BME280;55625;47.072;22.192;2023-03-22T11:46:26;99617.25;;;19.52;38.78
68634;BME280;55625;47.072;22.192;2023-03-22T11:48:59;99624.41;;;19.74;38.31
68634;BME280;55625;47.072;22.192;2023-03-22T11:51:36;99611.38;;;20.01;38.97
68634;BME280;55625;47.072;22.192;2023-03-22T11:54:08;99612.16;;;20.12;37.56
68634;BME280;55625;47.072;22.192;2023-03-22T11:56:40;99603.03;;;20.42;37.39
68634;BME280;55625;47.072;22.192;2023-03-22T11:59:21;99601.69;;;20.65;36.51
68634;BME280;55625;47.072;22.192;2023-03-22T12:04:41;99593.97;;;21.07;37.39
68634;BME280;55625;47.072;22.192;2023-03-22T12:07:19;99598.75;;;20.93;36.44
68634;BME280;55625;47.072;22.192;2023-03-22T12:10:02;99599.53;;;20.94;35.09
68634;BME280;55625;47.072;22.192;2023-03-22T12:12:36;99593.25;;;20.90;36.53
68634;BME280;55625;47.072;22.192;2023-03-22T12:15:18;99590.66;;;20.75;36.06
68634;BME280;55625;47.072;22.192;2023-03-22T12:18:13;99585.88;;;21.00;36.99
68634;BME280;55625;47.072;22.192;2023-03-22T12:20:53;99595.91;;;20.88;36.32
68634;BME280;55625;47.072;22.192;2023-03-22T12:23:28;99595.53;;;21.25;34.12
68634;BME280;55625;47.072;22.192;2023-03-22T12:26:24;99589.56;;;20.95;36.90
68634;BME280;55625;47.072;22.192;2023-03-22T12:29:03;99588.31;;;20.85;35.71
68634;BME280;55625;47.072;22.192;2023-03-22T12:31:59;99587.25;;;20.88;35.27
68634;BME280;55625;47.072;22.192;2023-03-22T12:34:42;99590.41;;;20.67;34.57
68634;BME280;55625;47.072;22.192;2023-03-22T12:37:19;99583.09;;;20.27;34.99
68634;BME280;55625;47.072;22.192;2023-03-22T12:39:59;99581.25;;;20.13;35.99
68634;BME280;55625;47.072;22.192;2023-03-22T12:42:43;99579.69;;;20.34;36.79
68634;BME280;55625;47.072;22.192;2023-03-22T12:45:19;99580.22;;;20.33;37.63
68634;BME280;55625;47.072;22.192;2023-03-22T12:48:19;99569.72;;;20.13;36.00
68634;BME280;55625;47.072;22.192;2023-03-22T12:51:02;99573.28;;;19.52;35.54
68634;BME280;55625;47.072;22.192;2023-03-22T12:53:40;99566.97;;;19.42;36.87
68634;BME280;55625;47.072;22.192;2023-03-22T12:56:15;99565.91;;;19.34;35.85
68634;BME280;55625;47.072;22.192;2023-03-22T12:58:46;99570.53;;;19.15;35.64
68634;BME280;55625;47.072;22.192;2023-03-22T13:03:54;99562.25;;;19.39;38.27
68634;BME280;55625;47.072;22.192;2023-03-22T13:09:38;99564.22;;;19.93;35.98
68634;BME280;55625;47.072;22.192;2023-03-22T13:15:02;99565.78;;;19.82;36.77
68634;BME280;55625;47.072;22.192;2023-03-22T13:17:44;99560.53;;;19.70;36.82
68634;BME280;55625;47.072;22.192;2023-03-22T13:30:32;99563.03;;;19.29;38.76
68634;BME280;55625;47.072;22.192;2023-03-22T13:35:44;99560.44;;;19.36;36.99
68634;BME280;55625;47.072;22.192;2023-03-22T13:38:35;99558.25;;;19.20;38.03
68634;BME280;55625;47.072;22.192;2023-03-22T13:41:31;99559.91;;;19.32;38.78
68634;BME280;55625;47.072;22.192;2023-03-22T13:44:39;99556.75;;;19.36;38.67
68634;BME280;55625;47.072;22.192;2023-03-22T13:47:08;99552.47;;;19.03;37.64
68634;BME280;55625;47.072;22.192;2023-03-22T13:50:04;99551.88;;;18.51;38.71
68634;BME280;55625;47.072;22.192;2023-03-22T13:52:41;99560.63;;;17.99;38.57
68634;BME280;55625;47.072;22.192;2023-03-22T14:01:34;99553.91;;;18.39;38.00
68634;BME280;55625;47.072;22.192;2023-03-22T14:04:12;99555.03;;;18.16;37.82
68634;BME280;55625;47.072;22.192;2023-03-22T14:06:58;99555.94;;;18.02;37.82
68634;BME280;55625;47.072;22.192;2023-03-22T14:09:31;99558.41;;;17.83;39.56
68634;BME280;55625;47.072;22.192;2023-03-22T14:14:57;99560.31;;;18.23;39.95
68634;BME280;55625;47.072;22.192;2023-03-22T14:18:01;99559.00;;;18.24;39.68
68634;BME280;55625;47.072;22.192;2023-03-22T14:20:36;99553.94;;;18.08;39.90
68634;BME280;55625;47.072;22.192;2023-03-22T14:23:11;99556.50;;;18.06;39.38
68634;BME280;55625;47.072;22.192;2023-03-22T14:25:39;99564.19;;;17.88;38.75
68634;BME280;55625;47.072;22.192;2023-03-22T14:28:07;99557.78;;;17.73;40.24
68634;BME280;55625;47.072;22.192;2023-03-22T14:33:07;99552.91;;;17.33;40.17